sensor_id;sensor_type;location;lat;lon;timestamp;pressure;altitude;pressure_sealevel;temperature;humidity
21357;BME280;10836;53.068;18.234;2023-03-04T00:02:26;100738.03;;;1.03;100.00
21357;BME280;10836;53.068;18.234;2023-03-04T00:04:53;100735.53;;;1.08;100.00
21357;BME280;10836;53.068;18.234;2023-03-04T00:07:20;100727.47;;;1.08;100.00
21357;BME280;10836;53.068;18.234;2023-03-04T00:09:47;100717.75;;;1.07;100.00
21357;BME280;10836;53.068;18.234;2023-03-04T00:12:14;100704.28;;;1.07;100.00
21357;BME280;10836;53.068;18.234;2023-03-04T00:14:41;100684.84;;;1.05;100.00
21357;BME280;10836;53.068;18.234;2023-03-04T00:17:08;100679.06;;;1.08;100.00
21357;BME280;10836;53.068;18.234;2023-03-04T00:19:35;100683.63;;;1.01;100.00
21357;BME280;10836;53.068;18.234;2023-03-04T00:22:03;100680.72;;;1.03;100.00
21357;BME280;10836;53.068;18.234;2023-03-04T00:24:30;100662.72;;;1.03;100.00
21357;BME280;10836;53.068;18.234;2023-03-04T00:26:58;100663.34;;;1.05;100.00
21357;BME280;10836;53.068;18.234;2023-03-04T00:29:25;100650.94;;;1.04;100.00
21357;BME280;10836;53.068;18.234;2023-03-04T00:31:52;100630.69;;;0.95;100.00
21357;BME280;10836;53.068;18.234;2023-03-04T00:34:20;100623.25;;;0.90;100.00
21357;BME280;10836;53.068;18.234;2023-03-04T00:36:47;100627.88;;;0.77;100.00
21357;BME280;10836;53.068;18.234;2023-03-04T00:39:16;100620.84;;;0.76;100.00
21357;BME280;10836;53.068;18.234;2023-03-04T00:41:43;100616.50;;;0.75;100.00
21357;BME280;10836;53.068;18.234;2023-03-04T00:44:10;100606.41;;;0.63;100.00
21357;BME280;10836;53.068;18.234;2023-03-04T00:46:37;100617.13;;;0.77;100.00
21357;BME280;10836;53.068;18.234;2023-03-04T00:49:03;100604.31;;;0.79;100.00
21357;BME280;10836;53.068;18.234;2023-03-04T00:51:30;100598.94;;;0.79;100.00
21357;BME280;10836;53.068;18.234;2023-03-04T00:53:57;100596.44;;;0.84;100.00
21357;BME280;10836;53.068;18.234;2023-03-04T00:56:27;100601.41;;;0.74;100.00
21357;BME280;10836;53.068;18.234;2023-03-04T00:58:54;100615.47;;;0.76;100.00
21357;BME280;10836;53.068;18.234;2023-03-04T01:01:21;100618.16;;;0.76;100.00
21357;BME280;10836;53.068;18.234;2023-03-04T01:03:50;100612.56;;;0.84;100.00
21357;BME280;10836;53.068;18.234;2023-03-04T01:06:17;100602.19;;;0.87;100.00
21357;BME280;10836;53.068;18.234;2023-03-04T01:08:44;100597.81;;;0.93;100.00
21357;BME280;10836;53.068;18.234;2023-03-04T01:11:11;100613.09;;;0.99;100.00
21357;BME280;10836;53.068;18.234;2023-03-04T01:13:37;100607.91;;;1.04;100.00
21357;BME280;10836;53.068;18.234;2023-03-04T01:16:06;100599.59;;;1.12;100.00
21357;BME280;10836;53.068;18.234;2023-03-04T01:18:33;100600.41;;;1.19;100.00
21357;BME280;10836;53.068;18.234;2023-03-04T01:21:01;100599.97;;;1.22;100.00
21357;BME280;10836;53.068;18.234;2023-03-04T01:23:28;100592.53;;;1.24;100.00
21357;BME280;10836;53.068;18.234;2023-03-04T01:25:55;100589.56;;;1.32;100.00
21357;BME280;10836;53.068;18.234;2023-03-04T01:28:22;100587.06;;;1.31;100.00
21357;BME280;10836;53.068;18.234;2023-03-04T01:30:49;100602.56;;;1.36;100.00
21357;BME280;10836;53.068;18.234;2023-03-04T01:33:16;100598.22;;;1.34;100.00
21357;BME280;10836;53.068;18.234;2023-03-04T01:35:43;100596.13;;;1.43;100.00
21357;BME280;10836;53.068;18.234;2023-03-04T01:38:10;100592.00;;;1.41;100.00
21357;BME280;10836;53.068;18.234;2023-03-04T01:40:38;100592.34;;;1.51;100.00
21357;BME280;10836;53.068;18.234;2023-03-04T01:43:06;100578.69;;;1.52;100.00
21357;BME280;10836;53.068;18.234;2023-03-04T01:45:34;100577.63;;;1.53;100.00
21357;BME280;10836;53.068;18.234;2023-03-04T01:48:01;100578.69;;;1.52;100.00
21357;BME280;10836;53.068;18.234;2023-03-04T01:50:33;100577.44;;;1.55;100.00
21357;BME280;10836;53.068;18.234;2023-03-04T01:53:02;100570.78;;;1.57;100.00
21357;BME280;10836;53.068;18.234;2023-03-04T01:55:30;100571.59;;;1.58;100.00
21357;BME280;10836;53.068;18.234;2023-03-04T01:57:57;100584.41;;;1.62;100.00
21357;BME280;10836;53.068;18.234;2023-03-04T02:00:33;100583.16;;;1.65;100.00
21357;BME280;10836;53.068;18.234;2023-03-04T02:03:06;100578.38;;;1.67;100.00
21357;BME280;10836;53.068;18.234;2023-03-04T02:05:38;100575.63;;;1.74;100.00
21357;BME280;10836;53.068;18.234;2023-03-04T02:08:06;100567.19;;;1.70;100.00
21357;BME280;10836;53.068;18.234;2023-03-04T02:10:35;100569.88;;;1.70;100.00
21357;BME280;10836;53.068;18.234;2023-03-04T02:13:04;100551.47;;;1.67;100.00
21357;BME280;10836;53.068;18.234;2023-03-04T02:15:32;100543.38;;;1.67;100.00
21357;BME280;10836;53.068;18.234;2023-03-04T02:17:59;100549.38;;;1.69;100.00
21357;BME280;10836;53.068;18.234;2023-03-04T02:20:41;100558.19;;;1.76;100.00
21357;BME280;10836;53.068;18.234;2023-03-04T02:23:16;100544.59;;;1.71;100.00
21357;BME280;10836;53.068;18.234;2023-03-04T02:28:25;100545.78;;;1.75;100.00
21357;BME280;10836;53.068;18.234;2023-03-04T02:30:52;100552.38;;;1.79;100.00
21357;BME280;10836;53.068;18.234;2023-03-04T02:33:20;100539.53;;;1.81;100.00
21357;BME280;10836;53.068;18.234;2023-03-04T02:35:47;100538.75;;;1.74;100.00
21357;BME280;10836;53.068;18.234;2023-03-04T02:38:13;100536.22;;;1.79;100.00
21357;BME280;10836;53.068;18.234;2023-03-04T02:40:42;100540.72;;;1.85;100.00
21357;BME280;10836;53.068;18.234;2023-03-04T02:43:13;100530.84;;;1.79;100.00
21357;BME280;10836;53.068;18.234;2023-03-04T02:45:43;100536.22;;;1.79;100.00
21357;BME280;10836;53.068;18.234;2023-03-04T02:48:12;100540.34;;;1.82;100.00
21357;BME280;10836;53.068;18.234;2023-03-04T02:50:42;100531.19;;;1.89;100.00
21357;BME280;10836;53.068;18.234;2023-03-04T02:53:10;100527.06;;;1.87;100.00
21357;BME280;10836;53.068;18.234;2023-03-04T02:55:37;100517.09;;;1.87;100.00
21357;BME280;10836;53.068;18.234;2023-03-04T02:58:05;100531.34;;;1.94;100.00
21357;BME280;10836;53.068;18.234;2023-03-04T03:00:32;100530.50;;;1.94;100.00
21357;BME280;10836;53.068;18.234;2023-03-04T03:02:59;100524.31;;;1.93;100.00
21357;BME280;10836;53.068;18.234;2023-03-04T03:05:28;100520.78;;;1.93;100.00
21357;BME280;10836;53.068;18.234;2023-03-04T03:07:56;100510.84;;;1.93;100.00
21357;BME280;10836;53.068;18.234;2023-03-04T03:10:24;100527.59;;;1.95;100.00
21357;BME280;10836;53.068;18.234;2023-03-04T03:12:51;100518.91;;;1.93;100.00
21357;BME280;10836;53.068;18.234;2023-03-04T03:15:19;100523.25;;;1.94;100.00
21357;BME280;10836;53.068;18.234;2023-03-04T03:17:46;100512.50;;;1.94;100.00
21357;BME280;10836;53.068;18.234;2023-03-04T03:20:14;100507.09;;;1.94;100.00
21357;BME280;10836;53.068;18.234;2023-03-04T03:22:42;100520.78;;;1.93;100.00
21357;BME280;10836;53.068;18.234;2023-03-04T03:25:11;100516.38;;;1.98;100.00
21357;BME280;10836;53.068;18.234;2023-03-04T03:27:38;100517.00;;;2.00;100.00
21357;BME280;10836;53.068;18.234;2023-03-04T03:30:07;100513.03;;;2.03;100.00
21357;BME280;10836;53.068;18.234;2023-03-04T03:32:35;100513.25;;;2.02;100.00
21357;BME280;10836;53.068;18.234;2023-03-04T03:35:03;100513.69;;;1.98;100.00
21357;BME280;10836;53.068;18.234;2023-03-04T03:37:30;100510.41;;;1.96;100.00
21357;BME280;10836;53.068;18.234;2023-03-04T03:39:57;100510.56;;;2.02;100.00
21357;BME280;10836;53.068;18.234;2023-03-04T03:42:23;100508.75;;;1.95;100.00
21357;BME280;10836;53.068;18.234;2023-03-04T03:44:50;100504.41;;;1.94;100.00
21357;BME280;10836;53.068;18.234;2023-03-04T03:47:17;100498.41;;;1.92;100.00
21357;BME280;10836;53.068;18.234;2023-03-04T03:49:44;100503.75;;;1.99;100.00
21357;BME280;10836;53.068;18.234;2023-03-04T03:52:11;100508.31;;;1.98;100.00
21357;BME280;10836;53.068;18.234;2023-03-04T03:54:38;100501.72;;;1.94;100.00
21357;BME280;10836;53.068;18.234;2023-03-04T03:57:05;100500.50;;;1.90;100.00
21357;BME280;10836;53.068;18.234;2023-03-04T03:59:32;100503.81;;;1.92;100.00
21357;BME280;10836;53.068;18.234;2023-03-04T04:02:00;100499.63;;;1.96;100.00
21357;BME280;10836;53.068;18.234;2023-03-04T04:04:27;100501.50;;;1.96;100.00
21357;BME280;10836;53.068;18.234;2023-03-04T04:06:54;100497.22;;;1.88;100.00
21357;BME280;10836;53.068;18.234;2023-03-04T04:09:21;100506.66;;;1.97;100.00
21357;BME280;10836;53.068;18.234;2023-03-04T04:11:48;100502.47;;;2.02;100.00
21357;BME280;10836;53.068;18.234;2023-03-04T04:14:15;100504.13;;;2.03;100.00
21357;BME280;10836;53.068;18.234;2023-03-04T04:16:42;100508.75;;;1.95;100.00
21357;BME280;10836;53.068;18.234;2023-03-04T04:19:16;100507.03;;;2.01;100.00
21357;BME280;10836;53.068;18.234;2023-03-04T04:21:43;100509.56;;;1.96;100.00
21357;BME280;10836;53.068;18.234;2023-03-04T04:24:11;100505.06;;;1.90;100.00
21357;BME280;10836;53.068;18.234;2023-03-04T04:26:38;100509.63;;;1.89;100.00
21357;BME280;10836;53.068;18.234;2023-03-04T04:29:06;100497.75;;;1.97;100.00
21357;BME280;10836;53.068;18.234;2023-03-04T04:31:33;100500.44;;;1.97;100.00
21357;BME280;10836;53.068;18.234;2023-03-04T04:34:01;100489.91;;;1.95;100.00
21357;BME280;10836;53.068;18.234;2023-03-04T04:36:27;100495.44;;;2.00;100.00
21357;BME280;10836;53.068;18.234;2023-03-04T04:38:55;100498.75;;;2.03;100.00
21357;BME280;10836;53.068;18.234;2023-03-04T04:41:25;100485.56;;;1.94;100.00
21357;BME280;10836;53.068;18.234;2023-03-04T04:43:52;100480.63;;;1.91;100.00
21357;BME280;10836;53.068;18.234;2023-03-04T04:46:19;100479.34;;;1.94;100.00
21357;BME280;10836;53.068;18.234;2023-03-04T04:48:47;100464.03;;;1.94;100.00
21357;BME280;10836;53.068;18.234;2023-03-04T04:51:14;100464.84;;;1.95;100.00
21357;BME280;10836;53.068;18.234;2023-03-04T04:53:41;100465.66;;;1.95;100.00
21357;BME280;10836;53.068;18.234;2023-03-04T04:56:14;100461.63;;;1.86;100.00
21357;BME280;10836;53.068;18.234;2023-03-04T04:58:42;100468.59;;;1.94;100.00
21357;BME280;10836;53.068;18.234;2023-03-04T05:01:08;100457.50;;;1.84;100.00
21357;BME280;10836;53.068;18.234;2023-03-04T05:03:36;100462.06;;;1.83;100.00
21357;BME280;10836;53.068;18.234;2023-03-04T05:06:04;100463.91;;;1.83;100.00
21357;BME280;10836;53.068;18.234;2023-03-04T05:08:32;100455.03;;;1.82;100.00
21357;BME280;10836;53.068;18.234;2023-03-04T05:11:00;100456.81;;;1.88;100.00
21357;BME280;10836;53.068;18.234;2023-03-04T05:13:27;100445.84;;;1.90;100.00
21357;BME280;10836;53.068;18.234;2023-03-04T05:15:55;100454.13;;;1.88;100.00
21357;BME280;10836;53.068;18.234;2023-03-04T05:18:24;100456.16;;;1.93;100.00
21357;BME280;10836;53.068;18.234;2023-03-04T05:20:52;100437.09;;;1.94;100.00
21357;BME280;10836;53.068;18.234;2023-03-04T05:23:19;100444.56;;;1.92;100.00
21357;BME280;10836;53.068;18.234;2023-03-04T05:25:46;100445.00;;;1.89;100.00
21357;BME280;10836;53.068;18.234;2023-03-04T05:28:14;100442.25;;;1.96;100.00
21357;BME280;10836;53.068;18.234;2023-03-04T05:30:43;100449.13;;;1.92;100.00
21357;BME280;10836;53.068;18.234;2023-03-04T05:33:11;100449.34;;;1.90;100.00
21357;BME280;10836;53.068;18.234;2023-03-04T05:35:39;100449.56;;;1.89;100.00
21357;BME280;10836;53.068;18.234;2023-03-04T05:38:09;100448.00;;;1.81;100.00
21357;BME280;10836;53.068;18.234;2023-03-04T05:40:37;100453.69;;;1.91;100.00
21357;BME280;10836;53.068;18.234;2023-03-04T05:43:04;100448.31;;;1.91;100.00
21357;BME280;10836;53.068;18.234;2023-03-04T05:45:32;100444.63;;;1.86;100.00
21357;BME280;10836;53.068;18.234;2023-03-04T05:47:59;100447.03;;;1.94;100.00
21357;BME280;10836;53.068;18.234;2023-03-04T05:50:26;100454.91;;;1.95;100.00
21357;BME280;10836;53.068;18.234;2023-03-04T05:52:54;100453.69;;;1.91;100.00
21357;BME280;10836;53.068;18.234;2023-03-04T05:55:21;100453.69;;;1.91;100.00
21357;BME280;10836;53.068;18.234;2023-03-04T05:57:48;100457.22;;;1.92;100.00
21357;BME280;10836;53.068;18.234;2023-03-04T06:00:16;100458.19;;;1.97;100.00
21357;BME280;10836;53.068;18.234;2023-03-04T06:02:43;100453.25;;;1.94;100.00
21357;BME280;10836;53.068;18.234;2023-03-04T06:05:12;100444.66;;;2.04;100.00
21357;BME280;10836;53.068;18.234;2023-03-04T06:07:40;100455.34;;;1.92;100.00
21357;BME280;10836;53.068;18.234;2023-03-04T06:10:10;100455.28;;;1.99;100.00
21357;BME280;10836;53.068;18.234;2023-03-04T06:12:38;100447.63;;;1.96;100.00
21357;BME280;10836;53.068;18.234;2023-03-04T06:15:05;100446.53;;;2.04;100.00
21357;BME280;10836;53.068;18.234;2023-03-04T06:17:32;100455.22;;;2.06;100.00
21357;BME280;10836;53.068;18.234;2023-03-04T06:19:59;100449.66;;;2.00;100.00
21357;BME280;10836;53.068;18.234;2023-03-04T06:22:26;100450.25;;;2.03;100.00
21357;BME280;10836;53.068;18.234;2023-03-04T06:24:53;100443.53;;;2.12;100.00
21357;BME280;10836;53.068;18.234;2023-03-04T06:27:20;100434.53;;;2.18;100.00
21357;BME280;10836;53.068;18.234;2023-03-04T06:29:47;100442.94;;;2.10;100.00
21357;BME280;10836;53.068;18.234;2023-03-04T06:32:14;100448.47;;;2.15;100.00
21357;BME280;10836;53.068;18.234;2023-03-04T06:34:41;100459.25;;;2.15;100.00
21357;BME280;10836;53.068;18.234;2023-03-04T06:37:08;100445.00;;;2.26;100.00
21357;BME280;10836;53.068;18.234;2023-03-04T06:39:35;100443.97;;;2.27;100.00
21357;BME280;10836;53.068;18.234;2023-03-04T06:42:02;100449.66;;;2.19;100.00
21357;BME280;10836;53.068;18.234;2023-03-04T06:44:29;100452.94;;;2.21;100.00
21357;BME280;10836;53.068;18.234;2023-03-04T06:46:56;100446.28;;;2.23;100.00
21357;BME280;10836;53.068;18.234;2023-03-04T06:49:23;100438.56;;;2.27;100.00
21357;BME280;10836;53.068;18.234;2023-03-04T06:51:50;100446.81;;;2.32;100.00
21357;BME280;10836;53.068;18.234;2023-03-04T06:54:18;100447.41;;;2.34;100.00
21357;BME280;10836;53.068;18.234;2023-03-04T06:56:45;100448.59;;;2.38;100.00
21357;BME280;10836;53.068;18.234;2023-03-04T06:59:13;100448.59;;;2.38;100.00
21357;BME280;10836;53.068;18.234;2023-03-04T07:01:40;100448.69;;;2.31;100.00
21357;BME280;10836;53.068;18.234;2023-03-04T07:04:07;100455.19;;;2.42;100.00
21357;BME280;10836;53.068;18.234;2023-03-04T07:06:34;100445.47;;;2.41;100.00
21357;BME280;10836;53.068;18.234;2023-03-04T07:09:01;100446.38;;;2.35;100.00
21357;BME280;10836;53.068;18.234;2023-03-04T07:11:28;100452.94;;;2.39;100.00
21357;BME280;10836;53.068;18.234;2023-03-04T07:13:55;100443.75;;;2.47;100.00
21357;BME280;10836;53.068;18.234;2023-03-04T07:16:23;100442.91;;;2.46;100.00
21357;BME280;10836;53.068;18.234;2023-03-04T07:18:50;100438.94;;;2.49;100.00
21357;BME280;10836;53.068;18.234;2023-03-04T07:21:17;100437.06;;;2.49;100.00
21357;BME280;10836;53.068;18.234;2023-03-04T07:23:44;100440.22;;;2.46;100.00
21357;BME280;10836;53.068;18.234;2023-03-04T07:26:11;100440.97;;;2.53;100.00
21357;BME280;10836;53.068;18.234;2023-03-04T07:28:39;100443.81;;;2.58;100.00
21357;BME280;10836;53.068;18.234;2023-03-04T07:31:19;100439.31;;;2.52;100.00
21357;BME280;10836;53.068;18.234;2023-03-04T07:33:47;100436.03;;;2.50;100.00
21357;BME280;10836;53.068;18.234;2023-03-04T07:36:14;100438.41;;;2.58;100.00
21357;BME280;10836;53.068;18.234;2023-03-04T07:38:46;100432.53;;;2.61;100.00
21357;BME280;10836;53.068;18.234;2023-03-04T07:41:14;100418.94;;;2.56;100.00
21357;BME280;10836;53.068;18.234;2023-03-04T07:43:41;100415.91;;;2.64;100.00
21357;BME280;10836;53.068;18.234;2023-03-04T07:46:08;100419.31;;;2.60;100.00
21357;BME280;10836;53.068;18.234;2023-03-04T07:48:36;100410.72;;;2.51;100.00
21357;BME280;10836;53.068;18.234;2023-03-04T07:51:15;100419.41;;;2.53;100.00
21357;BME280;10836;53.068;18.234;2023-03-04T07:53:48;100414.84;;;2.65;100.00
21357;BME280;10836;53.068;18.234;2023-03-04T07:56:21;100409.16;;;2.74;100.00
21357;BME280;10836;53.068;18.234;2023-03-04T07:58:48;100415.44;;;2.67;100.00
21357;BME280;10836;53.068;18.234;2023-03-04T08:01:18;100400.47;;;2.72;100.00
21357;BME280;10836;53.068;18.234;2023-03-04T08:03:45;100411.69;;;2.68;100.00
21357;BME280;10836;53.068;18.234;2023-03-04T08:06:14;100409.59;;;2.71;100.00
21357;BME280;10836;53.068;18.234;2023-03-04T08:08:42;100405.25;;;2.70;100.00
21357;BME280;10836;53.068;18.234;2023-03-04T08:11:12;100409.16;;;2.74;100.00
21357;BME280;10836;53.068;18.234;2023-03-04T08:13:39;100403.44;;;2.82;100.00
21357;BME280;10836;53.068;18.234;2023-03-04T08:16:07;100401.56;;;2.82;100.00
21357;BME280;10836;53.068;18.234;2023-03-04T08:18:34;100398.72;;;2.77;100.00
21357;BME280;10836;53.068;18.234;2023-03-04T08:21:01;100392.88;;;2.80;100.00
21357;BME280;10836;53.068;18.234;2023-03-04T08:23:27;100397.00;;;2.83;100.00
21357;BME280;10836;53.068;18.234;2023-03-04T08:25:54;100398.41;;;2.85;100.00
21357;BME280;10836;53.068;18.234;2023-03-04T08:28:21;100389.94;;;2.82;100.00
21357;BME280;10836;53.068;18.234;2023-03-04T08:30:52;100388.91;;;2.83;100.00
21357;BME280;10836;53.068;18.234;2023-03-04T08:33:19;100392.19;;;2.85;100.00
21357;BME280;10836;53.068;18.234;2023-03-04T08:35:47;100393.06;;;2.97;100.00
21357;BME280;10836;53.068;18.234;2023-03-04T08:38:13;100377.31;;;2.94;100.00
21357;BME280;10836;53.068;18.234;2023-03-04T08:40:40;100382.81;;;2.87;100.00
21357;BME280;10836;53.068;18.234;2023-03-04T08:43:07;100385.16;;;2.84;100.00
21357;BME280;10836;53.068;18.234;2023-03-04T08:45:34;100383.63;;;2.88;100.00
21357;BME280;10836;53.068;18.234;2023-03-04T08:48:01;100372.41;;;2.91;100.00
21357;BME280;10836;53.068;18.234;2023-03-04T08:50:28;100384.38;;;2.95;100.00
21357;BME280;10836;53.068;18.234;2023-03-04T08:52:55;100380.84;;;3.06;100.00
21357;BME280;10836;53.068;18.234;2023-03-04T08:55:22;100374.03;;;2.92;100.00
21357;BME280;10836;53.068;18.234;2023-03-04T08:57:49;100368.53;;;2.98;100.00
21357;BME280;10836;53.068;18.234;2023-03-04T09:00:16;100376.16;;;3.13;100.00
21357;BME280;10836;53.068;18.234;2023-03-04T09:02:43;100378.06;;;3.01;100.00
21357;BME280;10836;53.068;18.234;2023-03-04T09:05:11;100377.56;;;3.04;100.00
21357;BME280;10836;53.068;18.234;2023-03-04T09:07:37;100388.59;;;3.03;100.00
21357;BME280;10836;53.068;18.234;2023-03-04T09:10:05;100378.84;;;2.90;100.00
21357;BME280;10836;53.068;18.234;2023-03-04T09:12:32;100388.47;;;2.97;100.00
21357;BME280;10836;53.068;18.234;2023-03-04T09:14:59;100387.66;;;2.97;100.00
21357;BME280;10836;53.068;18.234;2023-03-04T09:17:39;100383.44;;;3.01;100.00
21357;BME280;10836;53.068;18.234;2023-03-04T09:20:09;100394.81;;;3.03;100.00
21357;BME280;10836;53.068;18.234;2023-03-04T09:22:37;100395.06;;;3.13;100.00
21357;BME280;10836;53.068;18.234;2023-03-04T09:25:04;100394.81;;;3.03;100.00
21357;BME280;10836;53.068;18.234;2023-03-04T09:27:37;100399.13;;;3.04;100.00
21357;BME280;10836;53.068;18.234;2023-03-04T09:30:04;100386.59;;;2.98;100.00
21357;BME280;10836;53.068;18.234;2023-03-04T09:32:31;100417.31;;;2.97;100.00
21357;BME280;10836;53.068;18.234;2023-03-04T09:34:59;100403.38;;;2.70;100.00
21357;BME280;10836;53.068;18.234;2023-03-04T09:37:26;100409.50;;;2.77;100.00
21357;BME280;10836;53.068;18.234;2023-03-04T09:39:53;100400.47;;;2.72;100.00
21357;BME280;10836;53.068;18.234;2023-03-04T09:42:34;100405.53;;;2.80;100.00
21357;BME280;10836;53.068;18.234;2023-03-04T09:45:04;100396.44;;;2.62;100.00
21357;BME280;10836;53.068;18.234;2023-03-04T09:47:33;100394.63;;;2.45;100.00
21357;BME280;10836;53.068;18.234;2023-03-04T09:50:06;100399.34;;;2.49;100.00
21357;BME280;10836;53.068;18.234;2023-03-04T09:55:24;100395.50;;;2.57;100.00
21357;BME280;10836;53.068;18.234;2023-03-04T09:58:02;100399.66;;;2.71;100.00
21357;BME280;10836;53.068;18.234;2023-03-04T10:00:45;100394.16;;;2.78;100.00
21357;BME280;10836;53.068;18.234;2023-03-04T10:03:23;100390.88;;;2.76;100.00
21357;BME280;10836;53.068;18.234;2023-03-04T10:05:56;100396.25;;;2.76;100.00
21357;BME280;10836;53.068;18.234;2023-03-04T10:08:39;100395.28;;;2.58;100.00
21357;BME280;10836;53.068;18.234;2023-03-04T10:11:38;100394.88;;;2.85;100.00
21357;BME280;10836;53.068;18.234;2023-03-04T10:14:26;100393.44;;;2.71;100.00
21357;BME280;10836;53.068;18.234;2023-03-04T10:17:10;100394.19;;;2.89;100.00
21357;BME280;10836;53.068;18.234;2023-03-04T10:22:41;100393.78;;;2.74;100.00
21357;BME280;10836;53.068;18.234;2023-03-04T10:25:23;100402.44;;;3.06;100.00
21357;BME280;10836;53.068;18.234;2023-03-04T10:27:55;100386.38;;;3.11;100.00
21357;BME280;10836;53.068;18.234;2023-03-04T10:33:21;100391.22;;;3.32;100.00
21357;BME280;10836;53.068;18.234;2023-03-04T10:35:59;100386.53;;;3.40;100.00
21357;BME280;10836;53.068;18.234;2023-03-04T10:38:30;100387.69;;;3.67;100.00
21357;BME280;10836;53.068;18.234;2023-03-04T10:40:58;100393.31;;;3.89;100.00
21357;BME280;10836;53.068;18.234;2023-03-04T10:43:26;100391.34;;;4.24;100.00
21357;BME280;10836;53.068;18.234;2023-03-04T10:45:56;100382.72;;;4.39;100.00
21357;BME280;10836;53.068;18.234;2023-03-04T10:48:29;100392.47;;;4.40;100.00
21357;BME280;10836;53.068;18.234;2023-03-04T10:51:17;100386.47;;;4.38;100.00
21357;BME280;10836;53.068;18.234;2023-03-04T10:53:46;100394.19;;;4.18;100.00
21357;BME280;10836;53.068;18.234;2023-03-04T10:57:00;100390.44;;;4.76;100.00
21357;BME280;10836;53.068;18.234;2023-03-04T10:59:48;100384.22;;;4.92;100.00
21357;BME280;10836;53.068;18.234;2023-03-04T11:13:20;100393.75;;;5.45;100.00
21357;BME280;10836;53.068;18.234;2023-03-04T11:15:55;100402.75;;;5.67;100.00
21357;BME280;10836;53.068;18.234;2023-03-04T11:18:43;100401.84;;;5.78;100.00
21357;BME280;10836;53.068;18.234;2023-03-04T11:21:18;100404.72;;;5.72;96.35
21357;BME280;10836;53.068;18.234;2023-03-04T11:23:51;100409.66;;;5.75;83.53
21357;BME280;10836;53.068;18.234;2023-03-04T11:26:23;100406.72;;;5.43;72.14
21357;BME280;10836;53.068;18.234;2023-03-04T11:31:37;100408.03;;;5.23;61.29
21357;BME280;10836;53.068;18.234;2023-03-04T11:34:14;100416.41;;;5.39;60.49
21357;BME280;10836;53.068;18.234;2023-03-04T11:36:50;100408.16;;;5.67;62.56
21357;BME280;10836;53.068;18.234;2023-03-04T11:39:30;100414.44;;;5.51;58.32
21357;BME280;10836;53.068;18.234;2023-03-04T11:42:16;100407.13;;;5.51;56.43
21357;BME280;10836;53.068;18.234;2023-03-04T11:44:46;100406.56;;;5.49;54.80
21357;BME280;10836;53.068;18.234;2023-03-04T11:50:26;100415.88;;;5.75;55.03
21357;BME280;10836;53.068;18.234;2023-03-04T11:53:07;100419.03;;;5.50;53.81
21357;BME280;10836;53.068;18.234;2023-03-04T12:01:18;100418.22;;;5.50;52.64
21357;BME280;10836;53.068;18.234;2023-03-04T12:14:49;100426.75;;;6.36;53.08
21357;BME280;10836;53.068;18.234;2023-03-04T12:17:29;100434.50;;;6.71;52.84
21357;BME280;10836;53.068;18.234;2023-03-04T12:20:17;100425.28;;;6.72;50.30
21357;BME280;10836;53.068;18.234;2023-03-04T12:25:37;100430.66;;;6.01;47.90
21357;BME280;10836;53.068;18.234;2023-03-04T12:44:38;100436.38;;;8.40;40.89
21357;BME280;10836;53.068;18.234;2023-03-04T12:50:09;100431.97;;;10.62;36.64
21357;BME280;10836;53.068;18.234;2023-03-04T12:53:09;100452.91;;;9.11;37.04
21357;BME280;10836;53.068;18.234;2023-03-04T12:55:39;100446.06;;;8.26;37.65
21357;BME280;10836;53.068;18.234;2023-03-04T12:58:19;100443.38;;;7.47;37.13
21357;BME280;10836;53.068;18.234;2023-03-04T13:01:05;100446.25;;;7.67;37.33
21357;BME280;10836;53.068;18.234;2023-03-04T13:06:45;100456.69;;;8.95;33.46
21357;BME280;10836;53.068;18.234;2023-03-04T13:11:52;100466.81;;;10.01;30.21
21357;BME280;10836;53.068;18.234;2023-03-04T13:16:51;100449.66;;;9.80;29.67
21357;BME280;10836;53.068;18.234;2023-03-04T13:22:39;100458.16;;;10.74;28.66
21357;BME280;10836;53.068;18.234;2023-03-04T13:41:22;100468.72;;;9.14;29.38
21357;BME280;10836;53.068;18.234;2023-03-04T13:44:00;100470.34;;;9.15;29.17
21357;BME280;10836;53.068;18.234;2023-03-04T13:46:38;100463.56;;;9.28;28.40
21357;BME280;10836;53.068;18.234;2023-03-04T13:49:13;100469.41;;;8.64;29.97
21357;BME280;10836;53.068;18.234;2023-03-04T13:51:43;100464.22;;;8.57;29.90
21357;BME280;10836;53.068;18.234;2023-03-04T13:59:59;100459.44;;;9.05;29.83
21357;BME280;10836;53.068;18.234;2023-03-04T14:02:21;100464.00;;;8.27;30.13
21357;BME280;10836;53.068;18.234;2023-03-04T14:10:02;100456.84;;;7.31;31.71
21357;BME280;10836;53.068;18.234;2023-03-04T14:12:34;100455.81;;;7.75;32.91
21357;BME280;10836;53.068;18.234;2023-03-04T14:15:15;100451.03;;;7.55;32.68
21357;BME280;10836;53.068;18.234;2023-03-04T14:17:50;100456.53;;;7.01;33.16
21357;BME280;10836;53.068;18.234;2023-03-04T14:20:24;100464.91;;;6.29;35.03
21357;BME280;10836;53.068;18.234;2023-03-04T14:22:52;100453.97;;;5.35;36.40
21357;BME280;10836;53.068;18.234;2023-03-04T14:27:49;100450.53;;;5.40;36.23
21357;BME280;10836;53.068;18.234;2023-03-04T14:30:26;100452.09;;;5.19;37.84
21357;BME280;10836;53.068;18.234;2023-03-04T14:33:15;100457.41;;;4.68;37.96
21357;BME280;10836;53.068;18.234;2023-03-04T14:35:52;100451.03;;;4.75;38.53
21357;BME280;10836;53.068;18.234;2023-03-04T14:38:27;100464.56;;;4.91;38.53
21357;BME280;10836;53.068;18.234;2023-03-04T14:41:09;100465.28;;;4.58;39.20
21357;BME280;10836;53.068;18.234;2023-03-04T14:43:55;100466.25;;;4.52;38.84